Time;durP1;ratioP1;P1;durP2;ratioP2;P2;SDS_P1;SDS_P2;PMS_P1;PMS_P2;Temp;Humidity;BMP_temperature;BMP_pressure;BME280_temperature;BME280_humidity;BME280_pressure;Samples;Min_cycle;Max_cycle;Signal;HPM_P1;HPM_P2
2024/02/11 00:00:43;;;;;;;24.70;12.50;;;;;;;8.02;96.07;97912.81;129858;1266;114792;-62
2024/02/11 00:04:05;;;;;;;23.70;12.30;;;;;;;8.03;95.99;97905.60;129590;1257;128317;-62
2024/02/11 00:07:08;;;;;;;17.20;11.60;;;;;;;8.04;95.77;97903.16;129729;1271;115087;-61
2024/02/11 00:10:10;;;;;;;25.80;11.70;;;;;;;8.07;95.83;97900.33;129875;1261;115177;-61
2024/02/11 00:13:12;;;;;;;17.80;10.30;;;;;;;8.08;95.92;97895.77;129891;1259;114661;-61
2024/02/11 00:16:15;;;;;;;23.50;11.70;;;;;;;8.10;96.00;97896.71;129785;1258;114760;-62
2024/02/11 00:19:17;;;;;;;22.00;10.60;;;;;;;8.11;95.78;97894.45;129759;1257;115402;-62
2024/02/11 00:22:19;;;;;;;20.10;11.20;;;;;;;8.13;95.69;97892.20;129775;1259;114851;-62
2024/02/11 00:25:21;;;;;;;10.40;6.90;;;;;;;8.14;95.55;97893.51;129627;1264;128353;-62
2024/02/11 00:28:25;;;;;;;23.90;11.10;;;;;;;8.16;95.38;97892.17;129761;1258;114716;-62
2024/02/11 00:31:28;;;;;;;19.40;10.40;;;;;;;8.17;95.53;97893.48;129821;1259;115078;-61
2024/02/11 00:34:31;;;;;;;20.90;10.60;;;;;;;8.18;95.67;97891.05;129906;1259;114754;-63
2024/02/11 00:37:34;;;;;;;19.70;8.80;;;;;;;8.20;95.29;97889.27;129761;1259;115002;-62
2024/02/11 00:40:49;;;;;;;20.60;9.60;;;;;;;8.23;95.32;97888.02;129482;1266;128478;-64
2024/02/11 00:43:54;;;;;;;24.20;10.40;;;;;;;8.25;95.46;97889.30;129744;1259;114769;-63
2024/02/11 00:46:56;;;;;;;22.50;11.90;;;;;;;8.27;95.20;97888.80;129868;1256;114773;-64
2024/02/11 00:49:59;;;;;;;10.50;5.20;;;;;;;8.29;95.20;97886.70;129883;1261;114777;-61
2024/02/11 00:53:04;;;;;;;19.20;10.20;;;;;;;8.31;95.06;97882.44;129786;1259;114859;-63
2024/02/11 00:56:08;;;;;;;18.50;11.00;;;;;;;8.31;94.85;97886.65;129919;1259;114874;-62
2024/02/11 00:59:10;;;;;;;25.10;10.90;;;;;;;8.33;95.14;97889.88;129612;1261;114885;-63
2024/02/11 01:02:13;;;;;;;18.80;10.10;;;;;;;8.35;94.68;97885.46;129798;1259;115343;-62
2024/02/11 01:05:15;;;;;;;21.50;11.90;;;;;;;8.37;94.60;97887.25;129937;1272;114741;-62
2024/02/11 01:08:25;;;;;;;21.90;10.30;;;;;;;8.40;94.76;97883.70;129819;1260;114686;-61
2024/02/11 01:11:27;;;;;;;23.40;10.20;;;;;;;8.42;94.47;97880.36;129600;1275;115358;-62
2024/02/11 01:14:30;;;;;;;22.20;9.90;;;;;;;8.43;94.47;97875.80;129858;1278;115160;-62
2024/02/11 01:17:32;;;;;;;20.20;10.60;;;;;;;8.45;94.29;97873.64;129704;1256;114869;-62
2024/02/11 01:20:34;;;;;;;22.00;10.90;;;;;;;8.48;94.37;97873.30;129724;1277;114729;-63
2024/02/11 01:23:36;;;;;;;20.30;9.60;;;;;;;8.50;94.33;97875.08;129819;1259;114773;-63
2024/02/11 01:26:39;;;;;;;15.10;7.30;;;;;;;8.54;94.21;97871.05;129663;1259;203398;-62
2024/02/11 01:29:41;;;;;;;22.80;9.70;;;;;;;8.56;94.02;97872.98;129809;1259;114755;-62
2024/02/11 01:32:44;;;;;;;19.10;7.60;;;;;;;8.61;94.12;97866.42;129827;1260;114717;-62
2024/02/11 01:35:46;;;;;;;15.90;8.00;;;;;;;8.65;94.13;97865.13;129802;1278;114809;-62
2024/02/11 01:38:51;;;;;;;16.00;7.10;;;;;;;8.71;94.17;97864.71;129628;1259;114694;-61
2024/02/11 01:41:53;;;;;;;;;;;;;;;8.77;93.94;97867.55;129568;1271;114814;-63
2024/02/11 01:45:08;;;;;;;16.60;8.40;;;;;;;8.84;94.19;97864.35;129781;1257;114763;-63
2024/02/11 01:48:10;;;;;;;18.50;8.30;;;;;;;8.91;94.59;97863.58;129807;1259;114727;-63
2024/02/11 01:51:12;;;;;;;16.70;5.80;;;;;;;8.98;94.68;97862.83;129884;1272;114893;-62
2024/02/11 01:54:16;;;;;;;18.30;6.80;;;;;;;9.07;94.57;97864.63;129709;1259;114801;-62
2024/02/11 01:57:18;;;;;;;19.70;8.70;;;;;;;9.15;94.63;97867.54;129569;1256;127907;-61
2024/02/11 02:00:21;;;;;;;14.70;6.00;;;;;;;9.21;94.76;97863.13;129696;1257;114789;-62
2024/02/11 02:03:24;;;;;;;17.70;6.50;;;;;;;9.26;94.73;97865.88;129806;1259;114695;-62
2024/02/11 02:06:26;;;;;;;17.60;6.60;;;;;;;9.31;94.55;97868.30;129893;1259;114792;-62
2024/02/11 02:09:31;;;;;;;19.60;7.60;;;;;;;9.36;94.67;97867.75;129703;1259;114844;-62
2024/02/11 02:12:33;;;;;;;20.80;6.70;;;;;;;9.39;94.64;97865.48;129792;1259;114760;-62
2024/02/11 02:15:35;;;;;;;18.40;7.90;;;;;;;9.43;94.49;97866.09;129539;1263;114737;-62
2024/02/11 02:18:38;;;;;;;22.40;8.40;;;;;;;9.46;94.44;97861.73;129652;1264;114921;-62
2024/02/11 02:21:54;;;;;;;17.70;5.90;;;;;;;9.48;94.22;97862.80;129843;1259;114716;-62
2024/02/11 02:24:56;;;;;;;15.70;6.70;;;;;;;9.52;94.16;97864.28;129682;1261;114974;-61
2024/02/11 02:28:00;;;;;;;18.60;6.60;;;;;;;9.54;94.35;97863.23;129633;1262;114648;-62
2024/02/11 02:31:04;;;;;;;22.20;6.30;;;;;;;9.56;94.14;97857.88;129775;1257;114786;-61
2024/02/11 02:34:06;;;;;;;15.00;7.10;;;;;;;9.58;94.04;97853.08;129527;1278;128440;-61
2024/02/11 02:37:08;;;;;;;19.10;6.20;;;;;;;9.59;93.99;97852.42;129825;1256;114786;-62
2024/02/11 02:40:10;;;;;;;15.10;5.30;;;;;;;9.61;93.84;97853.32;129861;1256;114816;-62
2024/02/11 02:43:13;;;;;;;18.60;6.20;;;;;;;9.63;93.85;97849.79;129775;1259;114771;-62
2024/02/11 02:46:15;;;;;;;16.90;6.10;;;;;;;9.65;93.76;97853.38;129793;1259;114725;-62
2024/02/11 02:49:17;;;;;;;13.90;5.70;;;;;;;9.69;93.87;97852.52;129753;1278;114786;-62
2024/02/11 02:52:19;;;;;;;20.50;7.20;;;;;;;9.72;93.78;97853.48;129686;1262;114946;-61
2024/02/11 02:55:21;;;;;;;18.00;7.10;;;;;;;9.76;93.59;97854.80;129707;1259;114748;-62
2024/02/11 02:58:23;;;;;;;24.40;6.30;;;;;;;9.81;93.74;97852.17;129726;1269;114811;-62
2024/02/11 03:01:29;;;;;;;19.20;6.70;;;;;;;9.86;93.91;97849.78;129581;1278;114750;-62
2024/02/11 03:04:31;;;;;;;11.70;5.50;;;;;;;9.92;93.83;97850.75;129518;1257;114942;-62
2024/02/11 03:07:38;;;;;;;13.90;5.10;;;;;;;9.97;93.65;97852.28;129768;1259;114978;-62
2024/02/11 03:10:40;;;;;;;15.30;6.30;;;;;;;10.02;94.01;97850.90;129732;1259;115132;-62
2024/02/11 03:13:43;;;;;;;6.60;3.30;;;;;;;10.06;94.30;97848.48;129711;1259;114712;-62
2024/02/11 03:16:46;;;;;;;16.40;5.40;;;;;;;10.08;93.91;97853.27;129846;1278;114800;-62
2024/02/11 03:19:48;;;;;;;8.20;3.80;;;;;;;10.10;94.18;97852.77;129939;1257;114724;-64
2024/02/11 03:22:52;;;;;;;21.90;5.80;;;;;;;10.10;93.85;97851.30;129775;1259;114786;-62
2024/02/11 03:25:54;;;;;;;15.60;5.40;;;;;;;10.11;93.86;97849.30;129766;1257;114799;-62
2024/02/11 03:28:56;;;;;;;12.30;5.10;;;;;;;10.10;94.28;97848.09;129762;1259;114709;-62
2024/02/11 03:31:58;;;;;;;15.50;6.20;;;;;;;10.11;94.32;97846.08;129825;1259;114773;-63
2024/02/11 03:35:00;;;;;;;13.10;5.40;;;;;;;10.11;94.10;97845.34;129743;1259;129172;-62
2024/02/11 03:38:03;;;;;;;16.20;4.70;;;;;;;10.11;94.25;97841.79;129678;1278;115513;-62
2024/02/11 03:41:07;;;;;;;14.50;4.90;;;;;;;10.11;94.27;97838.58;129779;1259;114730;-61
2024/02/11 03:44:09;;;;;;;12.80;5.40;;;;;;;10.10;94.45;97838.07;129601;1263;115165;-62
2024/02/11 03:47:12;;;;;;;10.30;4.60;;;;;;;10.10;94.76;97833.68;129773;1278;114790;-64
2024/02/11 03:50:14;;;;;;;9.70;4.20;;;;;;;10.09;94.60;97830.86;129830;1278;114821;-63
2024/02/11 03:53:20;;;;;;;14.90;5.50;;;;;;;10.08;94.58;97825.44;129716;1259;114753;-62
2024/02/11 03:56:26;;;;;;;13.30;3.70;;;;;;;10.07;94.70;97820.35;129793;1257;127477;-63
2024/02/11 03:59:28;;;;;;;12.60;3.90;;;;;;;10.05;94.62;97824.29;129752;1259;115401;-62
2024/02/11 04:02:33;;;;;;;11.50;4.20;;;;;;;10.03;94.53;97818.73;129826;1259;114824;-62
2024/02/11 04:05:39;;;;;;;8.30;3.40;;;;;;;10.00;94.51;97818.78;129732;1262;114735;-62
2024/02/11 04:08:42;;;;;;;8.60;3.10;;;;;;;9.99;94.47;97818.94;129684;1264;114736;-62
2024/02/11 04:11:44;;;;;;;10.40;4.20;;;;;;;9.98;94.59;97814.88;129737;1259;114759;-62
2024/02/11 04:14:48;;;;;;;8.80;4.20;;;;;;;9.98;94.42;97815.05;129675;1257;114739;-62
2024/02/11 04:17:53;;;;;;;7.80;3.40;;;;;;;9.99;94.51;97812.86;129762;1259;114792;-61
2024/02/11 04:20:55;;;;;;;10.10;3.70;;;;;;;9.99;94.41;97809.48;129807;1259;114849;-62
2024/02/11 04:23:58;;;;;;;11.80;4.90;;;;;;;9.99;94.24;97813.16;129710;1267;114721;-63
2024/02/11 04:27:01;;;;;;;13.10;4.50;;;;;;;10.01;94.31;97810.73;129730;1278;114715;-63
2024/02/11 04:30:05;;;;;;;12.20;4.20;;;;;;;10.01;94.28;97808.71;129729;1259;114730;-63
2024/02/11 04:33:08;;;;;;;12.90;4.40;;;;;;;10.01;94.26;97807.08;129927;1259;114719;-62
2024/02/11 04:36:18;;;;;;;7.70;3.70;;;;;;;10.01;94.43;97807.35;129812;1259;114629;-63
2024/02/11 04:39:21;;;;;;;11.20;3.80;;;;;;;10.01;94.39;97802.00;129539;1278;114913;-61
2024/02/11 04:42:24;;;;;;;7.10;3.20;;;;;;;10.00;94.34;97803.10;129520;1278;128370;-62
2024/02/11 04:45:26;;;;;;;9.50;3.90;;;;;;;9.99;94.51;97804.25;129652;1259;115394;-63
2024/02/11 04:48:30;;;;;;;6.50;3.10;;;;;;;10.00;94.61;97803.13;129781;1257;114801;-62
2024/02/11 04:51:32;;;;;;;8.30;3.70;;;;;;;9.99;94.91;97798.76;129767;1265;114757;-62
2024/02/11 04:54:35;;;;;;;10.30;2.60;;;;;;;9.98;95.00;97799.73;129810;1259;114771;-62
2024/02/11 04:57:38;;;;;;;7.30;3.30;;;;;;;9.96;95.07;97797.92;129787;1270;114889;-61
2024/02/11 05:00:42;;;;;;;9.80;3.00;;;;;;;9.94;95.24;97799.03;129725;1273;114692;-61
2024/02/11 05:03:46;;;;;;;5.80;3.10;;;;;;;9.92;95.19;97797.64;129780;1259;115391;-61
2024/02/11 05:06:49;;;;;;;7.20;3.20;;;;;;;9.89;95.49;97793.41;129664;1261;115159;-62
2024/02/11 05:09:51;;;;;;;7.00;2.70;;;;;;;9.86;95.48;97793.99;129846;1270;114805;-62
2024/02/11 05:12:56;;;;;;;5.90;3.00;;;;;;;9.85;95.71;97788.53;129700;1278;115087;-61
2024/02/11 05:16:03;;;;;;;8.80;3.20;;;;;;;9.84;95.79;97789.77;129754;1258;114902;-62
2024/02/11 05:19:08;;;;;;;6.00;2.30;;;;;;;9.83;95.93;97790.17;129479;1263;128284;-61
2024/02/11 05:22:13;;;;;;;7.80;3.20;;;;;;;9.81;95.95;97793.88;129824;1259;114854;-63
2024/02/11 05:25:19;;;;;;;10.90;3.80;;;;;;;9.79;96.07;97787.88;129761;1259;114791;-61
2024/02/11 05:28:21;;;;;;;8.20;3.50;;;;;;;9.76;96.36;97789.17;129824;1259;114835;-61
2024/02/11 05:31:25;;;;;;;10.10;3.20;;;;;;;9.73;96.22;97786.76;129747;1261;114790;-62
2024/02/11 05:34:27;;;;;;;11.30;4.80;;;;;;;9.70;96.43;97785.45;129730;1259;114642;-61
2024/02/11 05:37:30;;;;;;;9.60;4.50;;;;;;;9.67;96.60;97783.38;129732;1272;115100;-62
2024/02/11 05:40:35;;;;;;;10.10;4.80;;;;;;;9.62;96.75;97783.75;129829;1259;115155;-64
2024/02/11 05:43:37;;;;;;;15.60;5.40;;;;;;;9.58;97.17;97783.71;129542;1257;114817;-64
2024/02/11 05:46:40;;;;;;;8.50;3.40;;;;;;;9.56;97.09;97782.63;129776;1259;114836;-62
2024/02/11 05:49:42;;;;;;;12.40;5.10;;;;;;;9.54;97.44;97784.63;129777;1257;114783;-61
2024/02/11 05:52:45;;;;;;;9.10;4.60;;;;;;;9.52;97.53;97779.98;129827;1259;115344;-61
2024/02/11 05:55:49;;;;;;;8.90;5.50;;;;;;;9.51;97.57;97778.32;129712;1257;128862;-61
2024/02/11 05:58:52;;;;;;;13.60;5.80;;;;;;;9.49;97.75;97782.20;129816;1259;114749;-61
2024/02/11 06:01:56;;;;;;;6.80;3.50;;;;;;;9.46;98.05;97779.77;129617;1265;114878;-61
2024/02/11 06:04:59;;;;;;;10.20;6.10;;;;;;;9.44;98.02;97781.00;129791;1257;114651;-61
2024/02/11 06:08:01;;;;;;;12.90;3.80;;;;;;;9.42;98.17;97779.16;129765;1259;114719;-61
2024/02/11 06:11:03;;;;;;;11.10;5.20;;;;;;;9.40;98.30;97779.72;129751;1265;115328;-63
2024/02/11 06:14:06;;;;;;;9.40;4.40;;;;;;;9.38;98.46;97783.48;129818;1268;128655;-61
2024/02/11 06:17:08;;;;;;;7.90;4.10;;;;;;;9.36;98.72;97789.70;129821;1259;115215;-62
2024/02/11 06:20:13;;;;;;;9.60;4.50;;;;;;;9.32;98.85;97786.36;129763;1278;114852;-61
2024/02/11 06:23:16;;;;;;;8.10;4.20;;;;;;;9.29;98.94;97784.95;129790;1259;115132;-62
2024/02/11 06:26:18;;;;;;;12.50;4.50;;;;;;;9.27;99.17;97788.69;129862;1268;114784;-61
2024/02/11 06:29:20;;;;;;;12.40;5.60;;;;;;;9.25;99.17;97786.68;129820;1278;115087;-61
2024/02/11 06:32:22;;;;;;;9.60;4.80;;;;;;;9.24;99.36;97790.52;129815;1260;114821;-62
2024/02/11 06:35:24;;;;;;;8.90;4.70;;;;;;;9.24;99.41;97788.61;129919;1259;114772;-63
2024/02/11 06:38:27;;;;;;;7.70;3.80;;;;;;;9.23;99.66;97788.28;129785;1259;114629;-61
2024/02/11 06:41:32;;;;;;;8.40;4.70;;;;;;;9.22;99.93;97790.73;129870;1278;114659;-64
2024/02/11 06:44:34;;;;;;;11.00;5.30;;;;;;;9.21;99.98;97786.55;129861;1278;114829;-62
2024/02/11 06:47:36;;;;;;;11.10;5.20;;;;;;;9.20;100.00;97784.50;129858;1259;114747;-61
2024/02/11 06:50:38;;;;;;;6.20;3.30;;;;;;;9.20;99.99;97786.10;130024;1269;114719;-63
2024/02/11 06:53:41;;;;;;;7.40;3.80;;;;;;;9.20;99.99;97788.20;129811;1259;114737;-63
2024/02/11 06:56:44;;;;;;;8.90;3.70;;;;;;;9.20;100.00;97788.55;129785;1259;114780;-63
2024/02/11 06:59:47;;;;;;;6.60;3.60;;;;;;;9.20;100.00;97789.62;129791;1261;114783;-64
2024/02/11 07:02:52;;;;;;;6.20;2.90;;;;;;;9.20;100.00;97787.13;129803;1278;114879;-64
2024/02/11 07:05:54;;;;;;;;;;;;;;;9.21;100.00;97787.27;129553;1260;128506;-62
2024/02/11 07:08:56;;;;;;;6.30;2.80;;;;;;;9.21;100.00;97783.09;129848;1259;115203;-64
2024/02/11 07:11:59;;;;;;;4.90;2.80;;;;;;;9.21;100.00;97783.00;129863;1261;114626;-64
2024/02/11 07:15:04;;;;;;;9.20;3.90;;;;;;;9.18;100.00;97783.76;129772;1278;115276;-65
2024/02/11 07:18:06;;;;;;;7.20;3.60;;;;;;;9.16;100.00;97784.31;129557;1261;114719;-63
2024/02/11 07:21:12;;;;;;;7.90;3.60;;;;;;;9.17;100.00;97785.48;129667;1263;115165;-65
2024/02/11 07:24:14;;;;;;;7.10;3.80;;;;;;;9.17;100.00;97788.30;129741;1278;128159;-65
2024/02/11 07:27:16;;;;;;;8.20;4.70;;;;;;;9.18;100.00;97787.11;129649;1260;114732;-62
2024/02/11 07:30:19;;;;;;;9.50;4.10;;;;;;;9.18;100.00;97789.25;129788;1259;114943;-63
2024/02/11 07:33:21;;;;;;;10.20;4.30;;;;;;;9.19;100.00;97785.13;129760;1259;114722;-62
2024/02/11 07:36:23;;;;;;;9.40;5.10;;;;;;;9.16;100.00;97787.15;129943;1270;114794;-63
2024/02/11 07:39:25;;;;;;;13.80;8.10;;;;;;;9.16;100.00;97785.35;129864;1278;114690;-62
2024/02/11 07:42:30;;;;;;;12.50;6.20;;;;;;;9.18;100.00;97784.86;129436;1260;115807;-63
2024/02/11 07:45:32;;;;;;;9.30;5.50;;;;;;;9.19;100.00;97781.01;129582;1273;127817;-65
2024/02/11 07:48:34;;;;;;;8.50;4.90;;;;;;;9.20;100.00;97786.64;129770;1259;114934;-65
2024/02/11 07:51:37;;;;;;;15.00;7.80;;;;;;;9.19;100.00;97785.10;129659;1270;115105;-63
2024/02/11 07:54:39;;;;;;;9.00;4.40;;;;;;;9.19;100.00;97786.91;129802;1269;114670;-64
2024/02/11 07:57:41;;;;;;;13.50;8.10;;;;;;;9.17;100.00;97785.97;129752;1269;115150;-62
2024/02/11 08:00:44;;;;;;;10.30;5.60;;;;;;;9.17;100.00;97788.27;129827;1256;117166;-62
2024/02/11 08:03:47;;;;;;;11.90;6.80;;;;;;;9.19;100.00;97786.37;129576;1272;114900;-63
2024/02/11 08:06:49;;;;;;;9.90;6.40;;;;;;;9.19;100.00;97786.34;129515;1267;128148;-61
2024/02/11 08:09:53;;;;;;;11.10;6.70;;;;;;;9.20;100.00;97781.97;129818;1278;114843;-62
2024/02/11 08:12:55;;;;;;;8.90;5.30;;;;;;;9.21;100.00;97782.42;129847;1259;114785;-64
2024/02/11 08:15:57;;;;;;;10.30;5.50;;;;;;;9.23;100.00;97781.20;129859;1268;114937;-63
2024/02/11 08:18:59;;;;;;;10.90;7.00;;;;;;;9.22;100.00;97781.81;129476;1268;116560;-62
2024/02/11 08:22:02;;;;;;;13.10;7.30;;;;;;;9.20;100.00;97778.57;129748;1260;115431;-62
2024/02/11 08:25:07;;;;;;;13.10;7.70;;;;;;;9.19;100.00;97776.69;129886;1270;114891;-62
2024/02/11 08:28:10;;;;;;;10.60;5.90;;;;;;;9.20;100.00;97775.23;129770;1278;127374;-61
2024/02/11 08:31:12;;;;;;;11.90;6.90;;;;;;;9.20;100.00;97770.90;129844;1259;114815;-64
2024/02/11 08:34:15;;;;;;;16.00;9.20;;;;;;;9.23;100.00;97768.56;129814;1259;114817;-62
2024/02/11 08:37:17;;;;;;;12.20;7.40;;;;;;;9.26;100.00;97767.38;129814;1278;115214;-62
2024/02/11 08:40:19;;;;;;;10.50;6.10;;;;;;;9.30;100.00;97765.52;129644;1265;115536;-63
2024/02/11 08:43:22;;;;;;;11.40;7.00;;;;;;;9.32;100.00;97766.70;129562;1275;114785;-61
2024/02/11 08:46:24;;;;;;;13.10;7.90;;;;;;;9.33;100.00;97759.48;129832;1269;114833;-61
2024/02/11 08:49:26;;;;;;;15.40;7.40;;;;;;;9.37;100.00;97759.87;129586;1278;127419;-61
2024/02/11 08:52:28;;;;;;;13.20;7.30;;;;;;;9.41;100.00;97758.42;129935;1260;114690;-62
2024/02/11 08:55:31;;;;;;;12.60;7.60;;;;;;;9.46;100.00;97761.98;129843;1260;114748;-61
2024/02/11 08:58:34;;;;;;;10.40;5.20;;;;;;;9.51;100.00;97762.23;129780;1271;114721;-63
2024/02/11 09:01:36;;;;;;;12.60;8.90;;;;;;;9.54;100.00;97759.81;129874;1259;114710;-62
2024/02/11 09:04:39;;;;;;;10.00;5.20;;;;;;;9.56;100.00;97759.10;129718;1263;114883;-62
2024/02/11 09:07:42;;;;;;;16.10;7.00;;;;;;;9.58;100.00;97758.08;129837;1260;115322;-62
2024/02/11 09:10:44;;;;;;;10.30;5.80;;;;;;;9.58;100.00;97755.95;129761;1270;128883;-63
2024/02/11 09:13:47;;;;;;;10.70;7.20;;;;;;;9.58;100.00;97752.89;129631;1260;114794;-64
2024/02/11 09:16:50;;;;;;;10.80;6.70;;;;;;;9.60;100.00;97752.09;129899;1260;114792;-66
2024/02/11 09:19:52;;;;;;;13.70;6.10;;;;;;;9.62;100.00;97748.18;129845;1265;114727;-64
2024/02/11 09:22:57;;;;;;;14.10;6.90;;;;;;;9.63;100.00;97750.19;129997;1263;115174;-63
2024/02/11 09:25:59;;;;;;;13.60;6.10;;;;;;;9.63;100.00;97749.87;129800;1266;114709;-64
2024/02/11 09:29:02;;;;;;;14.20;6.70;;;;;;;9.66;100.00;97748.50;129834;1270;114915;-63
2024/02/11 09:32:05;;;;;;;12.80;6.50;;;;;;;9.71;100.00;97748.11;129550;1260;127918;-63
2024/02/11 09:35:08;;;;;;;12.20;6.20;;;;;;;9.76;100.00;97749.10;130116;1260;114747;-65
2024/02/11 09:38:11;;;;;;;11.50;6.20;;;;;;;9.78;100.00;97752.28;129766;1268;114724;-64
2024/02/11 09:41:13;;;;;;;13.50;7.50;;;;;;;9.78;100.00;97750.34;129851;1260;114810;-63
2024/02/11 09:44:22;;;;;;;12.60;6.20;;;;;;;9.77;100.00;97756.06;129886;1263;114780;-63
2024/02/11 09:47:25;;;;;;;14.50;8.10;;;;;;;9.78;100.00;97749.09;129551;1275;127757;-68
2024/02/11 09:50:27;;;;;;;12.50;6.80;;;;;;;9.78;100.00;97749.79;129554;1260;114826;-65
2024/02/11 09:53:30;;;;;;;10.70;6.30;;;;;;;9.81;100.00;97754.90;129707;1260;115170;-63
2024/02/11 09:56:32;;;;;;;13.10;6.40;;;;;;;9.81;100.00;97750.38;130078;1262;114851;-63
2024/02/11 09:59:34;;;;;;;10.00;6.80;;;;;;;9.82;100.00;97752.08;130398;1278;114842;-67
2024/02/11 10:02:38;;;;;;;11.60;6.00;;;;;;;9.79;100.00;97751.30;129459;1268;115176;-62
2024/02/11 10:05:41;;;;;;;10.80;6.30;;;;;;;9.78;100.00;97752.77;129772;1260;127846;-65
2024/02/11 10:08:45;;;;;;;13.70;9.20;;;;;;;9.80;100.00;97750.34;129780;1268;114829;-64
2024/02/11 10:11:49;;;;;;;7.00;4.80;;;;;;;9.85;100.00;97751.96;129632;1263;114826;-65
2024/02/11 10:14:55;;;;;;;12.70;7.00;;;;;;;9.92;100.00;97747.88;129592;1276;116251;-63
2024/02/11 10:17:57;;;;;;;15.40;8.60;;;;;;;9.95;100.00;97750.47;129794;1270;114711;-62
2024/02/11 10:21:00;;;;;;;11.70;6.00;;;;;;;9.93;100.00;97750.45;129787;1258;114761;-63
2024/02/11 10:24:03;;;;;;;13.10;7.40;;;;;;;9.93;100.00;97749.74;130066;1268;114712;-63
2024/02/11 10:27:05;;;;;;;15.10;6.70;;;;;;;9.94;100.00;97749.63;129998;1268;114750;-63
2024/02/11 10:30:09;;;;;;;15.00;9.30;;;;;;;9.96;100.00;97749.67;129847;1259;115171;-64
2024/02/11 10:33:11;;;;;;;12.00;7.60;;;;;;;10.00;100.00;97744.84;130408;1259;114712;-65
2024/02/11 10:36:15;;;;;;;7.40;4.60;;;;;;;10.00;100.00;97745.19;130104;1268;115514;-65
2024/02/11 10:39:17;;;;;;;11.20;6.90;;;;;;;10.00;100.00;97741.77;129893;1260;127830;-64
2024/02/11 10:42:20;;;;;;;9.00;6.10;;;;;;;10.01;100.00;97741.48;130171;1278;115122;-68
2024/02/11 10:45:22;;;;;;;8.70;5.20;;;;;;;10.03;100.00;97742.56;130347;1270;114805;-67
2024/02/11 10:48:24;;;;;;;8.80;5.20;;;;;;;10.01;100.00;97737.41;129856;1264;114734;-65
2024/02/11 10:51:31;;;;;;;6.80;3.90;;;;;;;9.99;100.00;97735.33;130113;1258;114894;-65
2024/02/11 10:54:42;;;;;;;13.50;6.90;;;;;;;9.96;100.00;97738.19;130202;1260;114769;-66
2024/02/11 10:57:52;;;;;;;7.30;3.90;;;;;;;9.95;100.00;97733.48;131759;1257;129542;-66
2024/02/11 11:00:55;;;;;;;7.00;4.70;;;;;;;9.95;100.00;97734.58;130241;1257;115209;-65
2024/02/11 11:03:57;;;;;;;10.10;5.00;;;;;;;9.96;100.00;97730.02;130265;1260;115096;-65
2024/02/11 11:06:59;;;;;;;8.40;5.90;;;;;;;9.96;100.00;97729.65;130071;1257;114786;-67
2024/02/11 11:10:03;;;;;;;8.10;5.30;;;;;;;9.96;100.00;97726.78;130322;1261;115100;-65
2024/02/11 11:13:05;;;;;;;7.70;3.70;;;;;;;9.96;100.00;97724.98;130206;1259;114719;-64
2024/02/11 11:16:08;;;;;;;8.70;5.00;;;;;;;9.99;100.00;97723.33;129657;1261;114707;-64
2024/02/11 11:19:13;;;;;;;6.70;4.00;;;;;;;10.01;100.00;97721.56;129614;1260;114821;-65
2024/02/11 11:22:29;;;;;;;11.40;6.10;;;;;;;10.05;100.00;97725.84;130293;1260;114858;-65
2024/02/11 11:25:34;;;;;;;12.10;5.70;;;;;;;10.02;100.00;97726.77;130085;1260;114930;-66
2024/02/11 11:28:41;;;;;;;7.20;4.20;;;;;;;10.08;100.00;97722.71;130201;1258;114733;-67
2024/02/11 11:31:47;;;;;;;8.90;4.70;;;;;;;10.09;100.00;97721.27;130073;1261;127918;-66
2024/02/11 11:34:51;;;;;;;5.40;3.20;;;;;;;10.10;100.00;97723.66;130334;1259;114718;-66
2024/02/11 11:37:58;;;;;;;10.50;5.00;;;;;;;10.12;100.00;97721.33;130191;1259;114779;-66
2024/02/11 11:41:00;;;;;;;9.30;4.80;;;;;;;10.14;100.00;97719.33;130045;1261;114786;-66
2024/02/11 11:44:02;;;;;;;7.80;5.50;;;;;;;10.15;100.00;97717.95;130160;1268;114725;-65
2024/02/11 11:47:08;;;;;;;10.00;6.10;;;;;;;10.21;100.00;97716.41;129625;1261;114790;-63
2024/02/11 11:50:13;;;;;;;8.60;4.80;;;;;;;10.22;100.00;97717.88;129692;1260;129112;-65
2024/02/11 11:53:20;;;;;;;8.60;4.70;;;;;;;10.24;100.00;97715.92;129500;1260;114731;-64
2024/02/11 11:56:23;;;;;;;7.40;4.60;;;;;;;10.30;100.00;97716.11;129765;1260;114985;-64
2024/02/11 11:59:27;;;;;;;7.60;5.10;;;;;;;10.35;100.00;97715.30;129589;1260;115035;-64
2024/02/11 12:02:30;;;;;;;7.50;4.20;;;;;;;10.40;100.00;97711.72;129702;1268;115256;-64
2024/02/11 12:05:32;;;;;;;9.70;5.30;;;;;;;10.43;100.00;97712.34;129902;1268;127654;-65
2024/02/11 12:08:36;;;;;;;8.70;4.90;;;;;;;10.47;100.00;97712.34;129455;1260;115316;-64
2024/02/11 12:11:49;;;;;;;8.30;5.50;;;;;;;10.49;100.00;97712.27;129544;1260;114732;-64
2024/02/11 12:14:54;;;;;;;5.80;3.40;;;;;;;10.53;100.00;97715.56;129582;1260;114785;-65
2024/02/11 12:17:59;;;;;;;10.70;5.40;;;;;;;10.56;100.00;97709.92;130204;1261;114774;-64
2024/02/11 12:21:02;;;;;;;9.30;5.00;;;;;;;10.59;100.00;97708.55;129501;1279;129202;-64
2024/02/11 12:24:05;;;;;;;6.10;3.80;;;;;;;10.65;100.00;97707.33;129565;1257;114731;-64
2024/02/11 12:27:11;;;;;;;14.00;5.80;;;;;;;10.71;100.00;97704.66;129616;1257;114795;-64
2024/02/11 12:30:23;;;;;;;5.40;3.90;;;;;;;10.72;100.00;97703.41;129535;1260;114683;-64
2024/02/11 12:33:25;;;;;;;6.60;4.80;;;;;;;10.73;100.00;97700.69;129563;1258;114947;-65
2024/02/11 12:36:28;;;;;;;6.50;4.40;;;;;;;10.73;100.00;97696.36;130007;1260;114806;-64
2024/02/11 12:39:31;;;;;;;9.70;5.50;;;;;;;10.75;100.00;97699.95;130028;1260;114751;-64
2024/02/11 12:42:38;;;;;;;8.40;3.80;;;;;;;10.75;100.00;97695.44;129428;1279;114828;-64
2024/02/11 12:45:40;;;;;;;11.10;8.10;;;;;;;10.77;100.00;97696.38;129761;1270;114734;-63
2024/02/11 12:48:44;;;;;;;9.30;6.00;;;;;;;10.79;100.00;97694.41;129613;1261;115439;-65
2024/02/11 12:51:48;;;;;;;7.40;4.60;;;;;;;10.84;100.00;97695.43;129492;1279;127911;-62
2024/02/11 12:54:50;;;;;;;11.20;6.90;;;;;;;10.83;100.00;97693.52;129606;1260;114814;-65
2024/02/11 12:57:53;;;;;;;9.60;6.00;;;;;;;10.81;100.00;97692.27;130166;1256;114705;-65
2024/02/11 13:00:57;;;;;;;7.50;4.70;;;;;;;10.78;100.00;97693.94;130194;1260;114856;-65
2024/02/11 13:03:59;;;;;;;7.80;5.30;;;;;;;10.79;100.00;97692.80;129880;1264;114791;-64
2024/02/11 13:07:01;;;;;;;8.10;5.20;;;;;;;10.79;100.00;97691.37;130102;1260;114765;-64
2024/02/11 13:10:04;;;;;;;6.30;4.50;;;;;;;10.83;100.00;97692.50;130181;1273;114772;-66
2024/02/11 13:13:06;;;;;;;9.60;5.50;;;;;;;10.83;100.00;97690.70;130043;1263;128880;-65
2024/02/11 13:16:12;;;;;;;9.30;5.70;;;;;;;10.84;100.00;97690.61;129341;1267;116647;-65
2024/02/11 13:19:15;;;;;;;7.90;4.80;;;;;;;10.85;100.00;97694.97;129998;1258;114751;-63
2024/02/11 13:22:17;;;;;;;8.90;3.90;;;;;;;10.82;100.00;97690.21;130381;1258;115286;-62
2024/02/11 13:25:22;;;;;;;9.10;4.70;;;;;;;10.82;100.00;97694.52;129299;1262;216198;-64
2024/02/11 13:28:24;;;;;;;9.50;5.00;;;;;;;10.81;100.00;97691.61;129762;1278;114791;-64
2024/02/11 13:31:29;;;;;;;7.80;4.90;;;;;;;10.79;100.00;97691.34;129349;1264;115439;-63
2024/02/11 13:34:31;;;;;;;8.30;5.30;;;;;;;10.74;100.00;97692.87;129507;1261;115801;-66
2024/02/11 13:37:33;;;;;;;5.70;3.60;;;;;;;10.72;100.00;97694.56;130465;1257;114734;-74
2024/02/11 13:40:37;;;;;;;6.60;4.20;;;;;;;10.70;100.00;97695.80;130243;1256;114746;-63
2024/02/11 13:43:39;;;;;;;8.00;5.20;;;;;;;10.66;100.00;97694.34;130304;1258;114717;-63
2024/02/11 13:46:41;;;;;;;9.90;6.10;;;;;;;10.66;100.00;97693.33;130165;1259;114837;-65
2024/02/11 13:49:43;;;;;;;12.80;6.50;;;;;;;10.64;100.00;97692.01;130257;1257;114750;-69
2024/02/11 13:52:44;;;;;;;8.20;5.80;;;;;;;10.62;100.00;97693.80;130230;1257;114634;-68
2024/02/11 13:55:46;;;;;;;9.00;6.20;;;;;;;10.63;100.00;97692.48;129839;1257;114792;-65
2024/02/11 13:58:51;;;;;;;10.20;6.80;;;;;;;10.64;100.00;97689.91;129701;1260;115334;-66